Omar B — J8B4578 — position and weather

sailwx.info

Track history (hours):
 
Tides and Currents Weather Stations Pressure Air Temp Water Temp Dewpoint Dewpoint Depression Visibility Wind Speed Wind Dir Waves Ship Positions

Omar B

Last reported at 2018-Feb-19 19:17 UTC. Time now 2018-Feb-20 05:23 UTC.
Position N 46°24' E 030°55'.

Length 136 m; draft 4.9 m.

Type: Cargo ship. MMSI: 376964000.

Date/timePositionNaut miles runAvg speedWind from/ knotsBaromVisibWave heightAir tempDewpointWater temp
2018-Feb-19 19:17N 46°24' E 030°55'6 9.6
2018-Feb-19 18:40N 46°29' E 030°55'34 7.6
2018-Feb-19 14:17N 46°36' E 031°43'2 8.5
2018-Feb-19 14:00N 46°36' E 031°47'4 8.6
2018-Feb-19 13:30N 46°37' E 031°52'4 7.9
2018-Feb-19 13:00N 46°40' E 031°56'4 7.9
2018-Feb-19 12:30N 46°44' E 031°55'4 8.1
2018-Feb-19 12:00N 46°48' E 031°53'5 9.1
2018-Feb-19 11:30N 46°52' E 031°58'4 8.9
2018-Feb-19 11:00N 46°55' E 032°01'2 3.3
2018-Feb-19 10:30N 46°57' E 032°00'0 0.1
2018-Feb-19 10:00N 46°57' E 032°00'0 0.0
2018-Feb-19 09:29N 46°57' E 032°00'0 0.0
2018-Feb-19 08:59N 46°57' E 032°00'0 0.0
2018-Feb-19 08:20N 46°57' E 032°00'0 0.0
2018-Feb-19 07:59N 46°57' E 032°00'0 0.0
2018-Feb-19 07:23N 46°57' E 032°00'0 0.0
2018-Feb-19 06:59N 46°57' E 032°00'0 0.0
2018-Feb-19 06:29N 46°57' E 032°00'0 0.0
2018-Feb-19 05:59N 46°57' E 032°00'0 0.0
2018-Feb-19 05:29N 46°57' E 032°00'0 0.0
2018-Feb-19 04:59N 46°57' E 032°00'0 0.0
2018-Feb-19 04:26N 46°57' E 032°00'0 0.0
2018-Feb-19 03:59N 46°57' E 032°00'0 0.0
2018-Feb-19 03:29N 46°57' E 032°00'0 0.0
2018-Feb-19 02:59N 46°57' E 032°00'0 0.0
2018-Feb-19 02:29N 46°57' E 032°00'0 0.0
2018-Feb-19 01:59N 46°57' E 032°00'0 0.0
2018-Feb-19 01:26N 46°57' E 032°00'0 0.0
2018-Feb-19 00:59N 46°57' E 032°00'0 0.0
2018-Feb-19 00:29N 46°57' E 032°00'0 0.0
2018-Feb-18 23:59N 46°57' E 032°00'0 0.0
2018-Feb-18 23:29N 46°57' E 032°00'0 0.0
2018-Feb-18 22:59N 46°57' E 032°00'0 0.0
2018-Feb-18 22:29N 46°57' E 032°00'0 0.0
2018-Feb-18 21:59N 46°57' E 032°00'0 0.0
2018-Feb-18 21:29N 46°57' E 032°00'0 0.0
2018-Feb-18 20:59N 46°57' E 032°00'0 0.0
2018-Feb-18 20:29N 46°57' E 032°00'0 0.0
2018-Feb-18 19:59N 46°57' E 032°00'0 0.0
2018-Feb-18 19:29N 46°57' E 032°00'0 0.0
2018-Feb-18 18:59N 46°57' E 032°00'0 0.0
2018-Feb-18 18:29N 46°57' E 032°00'0 0.0
2018-Feb-18 17:59N 46°57' E 032°00'0 0.0
2018-Feb-18 17:29N 46°57' E 032°00'0 0.0
2018-Feb-18 16:59N 46°57' E 032°00'0 0.0
2018-Feb-18 16:23N 46°57' E 032°00'0 0.0
2018-Feb-18 15:59N 46°57' E 032°00'0 0.0
2018-Feb-18 15:29N 46°57' E 032°00'0 0.0
2018-Feb-18 14:59N 46°57' E 032°00'0 0.0
2018-Feb-18 14:29N 46°57' E 032°00'0 0.0
2018-Feb-18 13:59N 46°57' E 032°00'0 0.0
2018-Feb-18 13:29N 46°57' E 032°00'0 0.0
2018-Feb-18 12:59N 46°57' E 032°00'0 0.0
2018-Feb-18 12:29N 46°57' E 032°00'0 0.0
2018-Feb-18 11:59N 46°57' E 032°00'0 0.0
2018-Feb-18 11:29N 46°57' E 032°00'0 0.0
2018-Feb-18 10:59N 46°57' E 032°00'0 0.0
2018-Feb-18 10:26N 46°57' E 032°00'0 0.0
2018-Feb-18 09:59N 46°57' E 032°00'0 0.0
2018-Feb-18 09:29N 46°57' E 032°00'0 0.0
2018-Feb-18 08:59N 46°57' E 032°00'0 0.0
2018-Feb-18 08:29N 46°57' E 032°00'0 0.0
2018-Feb-18 07:59N 46°57' E 032°00'0 0.0
2018-Feb-18 07:26N 46°57' E 032°00'0 0.0
2018-Feb-18 06:59N 46°57' E 032°00'0 0.0
2018-Feb-18 06:29N 46°57' E 032°00'0 0.0
2018-Feb-18 05:59N 46°57' E 032°00'0 0.0
2018-Feb-18 05:29N 46°57' E 032°00'0 0.0
2018-Feb-18 04:59N 46°57' E 032°00'0 0.0
2018-Feb-18 04:29N 46°57' E 032°00'0 0.0
2018-Feb-18 03:59N 46°57' E 032°00'0 0.0
2018-Feb-18 03:26N 46°57' E 032°00'0 0.0
2018-Feb-18 02:59N 46°57' E 032°00'0 0.0
2018-Feb-18 02:29N 46°57' E 032°00'0 0.0
2018-Feb-18 01:59N 46°57' E 032°00'0 0.0
2018-Feb-18 01:29N 46°57' E 032°00'0 0.0
2018-Feb-18 00:59N 46°57' E 032°00'0 0.0
2018-Feb-18 00:29N 46°57' E 032°00'0 0.0
2018-Feb-17 23:59N 46°57' E 032°00'0 0.0
2018-Feb-17 23:29N 46°57' E 032°00'0 0.0
2018-Feb-17 22:59N 46°57' E 032°00'0 0.0
2018-Feb-17 22:29N 46°57' E 032°00'0 0.0
2018-Feb-17 21:59N 46°57' E 032°00'0 0.0
2018-Feb-17 21:29N 46°57' E 032°00'0 0.0
2018-Feb-17 20:59N 46°57' E 032°00'0 0.0
2018-Feb-17 20:29N 46°57' E 032°00'0 0.0
2018-Feb-17 19:59N 46°57' E 032°00'0 0.0
2018-Feb-17 19:29N 46°57' E 032°00'0 0.0
2018-Feb-17 18:59N 46°57' E 032°00'0 0.0
2018-Feb-17 18:29N 46°57' E 032°00'0 0.0
2018-Feb-17 17:59N 46°57' E 032°00'0 0.0
2018-Feb-17 17:29N 46°57' E 032°00'0 0.0
2018-Feb-17 16:59N 46°57' E 032°00'0 0.0
2018-Feb-17 16:29N 46°57' E 032°00'0 0.0
2018-Feb-17 15:59N 46°57' E 032°00'0 0.0
2018-Feb-17 15:29N 46°57' E 032°00'0 0.0
2018-Feb-17 14:59N 46°57' E 032°00'0 0.0
2018-Feb-17 14:29N 46°57' E 032°00'0 0.0
2018-Feb-17 13:59N 46°57' E 032°00'0 0.0
2018-Feb-17 13:26N 46°57' E 032°00'0 0.0
2018-Feb-17 12:59N 46°57' E 032°00'0 0.0
2018-Feb-17 12:29N 46°57' E 032°00'0 0.0
2018-Feb-17 11:59N 46°57' E 032°00'0 0.0
2018-Feb-17 11:29N 46°57' E 032°00'0 0.0
2018-Feb-17 10:59N 46°57' E 032°00'0 0.0
2018-Feb-17 10:26N 46°57' E 032°00'0 0.0
2018-Feb-17 09:59N 46°57' E 032°00'0 0.0
2018-Feb-17 09:26N 46°57' E 032°00'0 0.0
2018-Feb-17 08:59N 46°57' E 032°00'0 0.0
2018-Feb-17 08:26N 46°57' E 032°00'0 0.0
2018-Feb-17 07:56N 46°57' E 032°00'0 0.0
2018-Feb-17 07:29N 46°57' E 032°00'0 0.0
2018-Feb-17 06:59N 46°57' E 032°00'0 0.0
2018-Feb-17 06:29N 46°57' E 032°00'0 0.0
2018-Feb-17 05:59N 46°57' E 032°00'0 0.0
2018-Feb-17 05:29N 46°57' E 032°00'0 0.0
2018-Feb-17 04:59N 46°57' E 032°00'0 0.0
2018-Feb-17 04:29N 46°57' E 032°00'0 0.0
2018-Feb-17 03:59N 46°57' E 032°00'0 0.0
2018-Feb-17 03:29N 46°57' E 032°00'0 0.0
2018-Feb-17 02:59N 46°57' E 032°00'0 0.0
2018-Feb-17 02:29N 46°57' E 032°00'0 0.0
2018-Feb-17 01:59N 46°57' E 032°00'0 0.0
2018-Feb-17 01:29N 46°57' E 032°00'0 0.0
2018-Feb-17 00:59N 46°57' E 032°00'0 0.0
2018-Feb-17 00:29N 46°57' E 032°00'0 0.0
2018-Feb-16 23:59N 46°57' E 032°00'0 0.0
2018-Feb-16 23:29N 46°57' E 032°00'0 0.0
2018-Feb-16 22:59N 46°57' E 032°00'0 0.0
2018-Feb-16 22:29N 46°57' E 032°00'0 0.0
2018-Feb-16 21:59N 46°57' E 032°00'0 0.0
2018-Feb-16 21:29N 46°57' E 032°00'0 0.0
2018-Feb-16 20:59N 46°57' E 032°00'0 0.0
2018-Feb-16 20:29N 46°57' E 032°00'0 0.0
2018-Feb-16 19:59N 46°57' E 032°00'0 0.0
2018-Feb-16 19:29N 46°57' E 032°00'0 0.0
2018-Feb-16 18:59N 46°57' E 032°00'0 0.0
2018-Feb-16 18:29N 46°57' E 032°00'0 0.0
2018-Feb-16 17:56N 46°57' E 032°00'0 0.0
2018-Feb-16 17:29N 46°57' E 032°00'0 0.0
2018-Feb-16 16:59N 46°57' E 032°00'0 0.0
2018-Feb-16 16:23N 46°57' E 032°00'0 0.0
2018-Feb-16 15:59N 46°57' E 032°00'0 0.0
2018-Feb-16 15:26N 46°57' E 032°00'0 0.0
2018-Feb-16 14:59N 46°57' E 032°00'0 0.0
2018-Feb-16 14:29N 46°57' E 032°00'0 0.0
2018-Feb-16 13:56N 46°57' E 032°00'0 0.0
2018-Feb-16 13:29N 46°57' E 032°00'0 0.0
2018-Feb-16 12:56N 46°57' E 032°00'0 0.0
2018-Feb-16 12:29N 46°57' E 032°00'0 0.0
2018-Feb-16 11:59N 46°57' E 032°00'0 0.0
2018-Feb-16 11:29N 46°57' E 032°00'0 0.0
2018-Feb-16 10:59N 46°57' E 032°00'0 0.0
2018-Feb-16 10:29N 46°57' E 032°00'0 0.0
2018-Feb-16 09:59N 46°57' E 032°00'0 0.0
2018-Feb-16 09:29N 46°57' E 032°00'0 0.0
2018-Feb-16 08:59N 46°57' E 032°00'0 0.0
2018-Feb-16 08:29N 46°57' E 032°00'0 0.0
2018-Feb-16 07:59N 46°57' E 032°00'0 0.0
2018-Feb-16 07:29N 46°57' E 032°00'0 0.0
2018-Feb-16 06:59N 46°57' E 032°00'0 0.0
2018-Feb-16 06:29N 46°57' E 032°00'0 0.0
2018-Feb-16 05:59N 46°57' E 032°00'0 0.0
2018-Feb-16 05:29N 46°57' E 032°00'0 0.0
2018-Feb-16 04:47N 46°57' E 032°00'0 0.0
2018-Feb-16 04:29N 46°57' E 032°00'0 0.0
2018-Feb-16 03:59N 46°57' E 032°00'0 0.0
2018-Feb-16 03:26N 46°57' E 032°00'0 0.0
2018-Feb-16 02:59N 46°57' E 032°00'0 0.0
2018-Feb-16 02:29N 46°57' E 032°00'0 0.0
2018-Feb-16 01:59N 46°57' E 032°00'0 0.0
2018-Feb-16 01:29N 46°57' E 032°00'0 0.0
2018-Feb-16 00:59N 46°57' E 032°00'0 0.0
2018-Feb-16 00:29N 46°57' E 032°00'0 0.0
2018-Feb-15 23:59N 46°57' E 032°00'0 0.0
2018-Feb-15 23:29N 46°57' E 032°00'0 0.0
2018-Feb-15 22:59N 46°57' E 032°00'0 0.0
2018-Feb-15 22:29N 46°57' E 032°00'0 0.0
2018-Feb-15 21:59N 46°57' E 032°00'0 0.0
2018-Feb-15 21:29N 46°57' E 032°00'0 0.0
2018-Feb-15 20:59N 46°57' E 032°00'0 0.0
2018-Feb-15 20:29N 46°57' E 032°00'0 0.0
2018-Feb-15 19:59N 46°57' E 032°00'0 0.0
2018-Feb-15 19:26N 46°57' E 032°00'0 0.0
2018-Feb-15 18:56N 46°57' E 032°00'0 0.0
2018-Feb-15 18:29N 46°57' E 032°00'0 0.0
2018-Feb-15 17:59N 46°57' E 032°00'0 0.0
2018-Feb-15 17:29N 46°57' E 032°00'0 0.0
2018-Feb-15 16:59N 46°57' E 032°00'0 0.0
2018-Feb-15 16:29N 46°57' E 032°00'0 0.0
2018-Feb-15 15:59N 46°57' E 032°00'0 0.0
2018-Feb-15 15:29N 46°57' E 032°00'0 0.0
2018-Feb-15 14:59N 46°57' E 032°00'0 0.0
2018-Feb-15 14:29N 46°57' E 032°00'0 0.0
2018-Feb-15 13:59N 46°57' E 032°00'0 0.0
2018-Feb-15 13:26N 46°57' E 032°00'0 0.0
2018-Feb-15 12:59N 46°57' E 032°00'0 0.0
2018-Feb-15 12:29N 46°57' E 032°00'0 0.0
2018-Feb-15 11:56N 46°57' E 032°00'0 0.0
2018-Feb-15 11:29N 46°57' E 032°00'0 0.5
2018-Feb-15 11:01N 46°57' E 032°00'2 4.7
2018-Feb-15 10:31N 46°54' E 032°01'4 8.7
2018-Feb-15 10:00N 46°51' E 031°57'4 7.9
2018-Feb-15 09:31N 46°48' E 031°53'510.0
2018-Feb-15 09:00N 46°43' E 031°56'5 9.9
2018-Feb-15 08:30N 46°38' E 031°55'39 8.3
2018-Feb-15 03:47N 46°32' E 030°58'3 8.6
2018-Feb-15 03:25N 46°29' E 030°57'  
2018-Feb-12 22:51N 44°21' E 029°20'410.2
2018-Feb-12 22:30N 44°19' E 029°16'510.4
2018-Feb-12 22:00N 44°16' E 029°10'610.7
2018-Feb-12 21:29N 44°13' E 029°03'510.9
2018-Feb-12 21:00N 44°10' E 028°57'510.9
2018-Feb-12 20:30N 44°07' E 028°51'511.0
2018-Feb-12 20:00N 44°05' E 028°44'3 6.3
2018-Feb-12 19:30N 44°06' E 028°40'0 0.7
2018-Feb-12 19:00N 44°06' E 028°40'0 0.0
2018-Feb-12 18:30N 44°06' E 028°40'0 0.0
2018-Feb-12 18:00N 44°06' E 028°40'0 0.0
2018-Feb-12 17:30N 44°06' E 028°40'0 0.0
2018-Feb-12 17:00N 44°06' E 028°40'0 0.0
2018-Feb-12 16:30N 44°06' E 028°40'0 0.0
2018-Feb-12 16:00N 44°06' E 028°40'0 0.0
2018-Feb-12 15:30N 44°06' E 028°40'0 0.0
2018-Feb-12 15:00N 44°06' E 028°40'0 0.0
2018-Feb-12 14:30N 44°06' E 028°40'0 0.0
2018-Feb-12 14:00N 44°06' E 028°40'0 0.0
2018-Feb-12 13:29N 44°06' E 028°40'0 0.0
2018-Feb-12 13:00N 44°06' E 028°40'0 0.0
2018-Feb-12 12:30N 44°06' E 028°40'0 0.0
2018-Feb-12 11:59N 44°06' E 028°40'0 0.0
2018-Feb-12 11:30N 44°06' E 028°40'0 0.0
2018-Feb-12 11:00N 44°06' E 028°40'0 0.0
2018-Feb-12 10:30N 44°06' E 028°40'0 0.0
2018-Feb-12 10:00N 44°06' E 028°40'0 0.0
2018-Feb-12 09:29N 44°06' E 028°40'0 0.0
2018-Feb-12 08:59N 44°06' E 028°40'0 0.0
2018-Feb-12 08:26N 44°06' E 028°40'0 0.0
2018-Feb-12 07:59N 44°06' E 028°40'0 0.0
2018-Feb-12 07:29N 44°06' E 028°40'0 0.0
2018-Feb-12 06:59N 44°06' E 028°40'0 0.0
2018-Feb-12 06:26N 44°06' E 028°40'0 0.0
2018-Feb-12 05:59N 44°06' E 028°40'0 0.0
2018-Feb-12 05:29N 44°06' E 028°40'0 0.0
2018-Feb-12 04:59N 44°06' E 028°40'0 0.0
2018-Feb-12 04:29N 44°06' E 028°40'0 0.0
2018-Feb-12 03:59N 44°06' E 028°40'0 0.0
2018-Feb-12 03:29N 44°06' E 028°40'0 0.0
2018-Feb-12 02:59N 44°06' E 028°40'0 0.0
2018-Feb-12 02:29N 44°06' E 028°40'0 0.0
2018-Feb-12 01:59N 44°06' E 028°40'0 0.0
2018-Feb-12 01:29N 44°06' E 028°40'0 0.0
2018-Feb-12 00:59N 44°06' E 028°40'0 0.0
2018-Feb-12 00:29N 44°06' E 028°40'0 0.0
2018-Feb-11 23:56N 44°06' E 028°40'0 0.0
2018-Feb-11 23:29N 44°06' E 028°40'0 0.0
2018-Feb-11 22:59N 44°06' E 028°40'0 0.0
2018-Feb-11 22:29N 44°06' E 028°40'0 0.0
2018-Feb-11 21:59N 44°06' E 028°40'0 0.0
2018-Feb-11 21:29N 44°06' E 028°40'0 0.0
2018-Feb-11 20:59N 44°06' E 028°40'0 0.0
2018-Feb-11 20:29N 44°06' E 028°40'0 0.0
2018-Feb-11 19:59N 44°06' E 028°40'0 0.0
2018-Feb-11 19:29N 44°06' E 028°40'0 0.0
2018-Feb-11 18:59N 44°06' E 028°40'0 0.0
2018-Feb-11 18:29N 44°06' E 028°40'0 0.0
2018-Feb-11 17:59N 44°06' E 028°40'0 0.0
2018-Feb-11 17:29N 44°06' E 028°40'0 0.0
2018-Feb-11 16:56N 44°06' E 028°40'0 0.0
2018-Feb-11 16:29N 44°06' E 028°40'0 0.0
2018-Feb-11 15:59N 44°06' E 028°40'0 0.0
2018-Feb-11 15:29N 44°06' E 028°40'0 0.0
2018-Feb-11 14:59N 44°06' E 028°40'0 0.0
2018-Feb-11 14:29N 44°06' E 028°40'0 0.0
2018-Feb-11 13:59N 44°06' E 028°40'0 0.0
2018-Feb-11 13:29N 44°06' E 028°40'0 0.0
2018-Feb-11 12:59N 44°06' E 028°40'0 0.0
2018-Feb-11 12:29N 44°06' E 028°40'0 0.0
2018-Feb-11 11:59N 44°06' E 028°40'0 0.0
2018-Feb-11 11:29N 44°06' E 028°40'0 0.0
2018-Feb-11 10:59N 44°06' E 028°40'0 0.0
2018-Feb-11 10:29N 44°06' E 028°40'0 0.0
2018-Feb-11 09:59N 44°06' E 028°40'0 0.0
2018-Feb-11 09:29N 44°06' E 028°40'0 0.0
2018-Feb-11 08:59N 44°06' E 028°40'0 0.0
2018-Feb-11 08:29N 44°06' E 028°40'0 0.0
2018-Feb-11 07:59N 44°06' E 028°40'0 0.0
2018-Feb-11 07:29N 44°06' E 028°40'0 0.0
2018-Feb-11 06:59N 44°06' E 028°40'0 0.0
2018-Feb-11 06:29N 44°06' E 028°40'0 0.0
2018-Feb-11 05:59N 44°06' E 028°40'0 0.0
2018-Feb-11 05:29N 44°06' E 028°40'0 0.0
2018-Feb-11 04:59N 44°06' E 028°40'0 0.0
2018-Feb-11 04:29N 44°06' E 028°40'0 0.0
2018-Feb-11 03:59N 44°06' E 028°40'0 0.0
2018-Feb-11 03:29N 44°06' E 028°40'0 0.0
2018-Feb-11 02:59N 44°06' E 028°40'0 0.0
2018-Feb-11 02:29N 44°06' E 028°40'0 0.0
2018-Feb-11 01:59N 44°06' E 028°40'0 0.0
2018-Feb-11 01:29N 44°06' E 028°40'0 0.0
2018-Feb-11 00:59N 44°06' E 028°40'0 0.0
2018-Feb-11 00:29N 44°06' E 028°40'0 0.0
2018-Feb-10 23:59N 44°06' E 028°40'0 0.0
2018-Feb-10 23:29N 44°06' E 028°40'0 0.0
2018-Feb-10 22:59N 44°06' E 028°40'0 0.0
2018-Feb-10 22:29N 44°06' E 028°40'0 0.0
2018-Feb-10 21:59N 44°06' E 028°40'0 0.0
2018-Feb-10 21:29N 44°06' E 028°40'0 0.0
2018-Feb-10 20:59N 44°06' E 028°40'0 0.0
2018-Feb-10 20:29N 44°06' E 028°40'0 0.0
2018-Feb-10 19:59N 44°06' E 028°40'0 0.0
2018-Feb-10 19:29N 44°06' E 028°40'0 0.0
2018-Feb-10 18:59N 44°06' E 028°40'0 0.0
2018-Feb-10 18:29N 44°06' E 028°40'0 0.0
2018-Feb-10 17:59N 44°06' E 028°40'0 0.0
2018-Feb-10 17:29N 44°06' E 028°40'0 0.0
2018-Feb-10 16:59N 44°06' E 028°40'0 0.0
2018-Feb-10 16:29N 44°06' E 028°40'0 0.0
2018-Feb-10 15:59N 44°06' E 028°40'0 0.0
2018-Feb-10 15:29N 44°06' E 028°40'0 0.0
2018-Feb-10 14:59N 44°06' E 028°40'0 0.0
2018-Feb-10 14:29N 44°06' E 028°40'0 0.0
2018-Feb-10 13:59N 44°06' E 028°40'0 0.0
2018-Feb-10 13:29N 44°06' E 028°40'0 0.0
2018-Feb-10 12:59N 44°06' E 028°40'0 0.0
2018-Feb-10 12:29N 44°06' E 028°40'0 0.0
2018-Feb-10 11:59N 44°06' E 028°40'0 0.0
2018-Feb-10 11:29N 44°06' E 028°40'0 0.0
2018-Feb-10 10:59N 44°06' E 028°40'0 0.0
2018-Feb-10 10:29N 44°06' E 028°40'0 0.0
2018-Feb-10 09:59N 44°06' E 028°40'0 0.0
2018-Feb-10 09:29N 44°06' E 028°40'0 0.0
2018-Feb-10 08:59N 44°06' E 028°40'0 0.0
2018-Feb-10 08:29N 44°06' E 028°40'0 0.0
2018-Feb-10 07:59N 44°06' E 028°40'0 0.0
2018-Feb-10 07:29N 44°06' E 028°40'0 0.0
2018-Feb-10 06:59N 44°06' E 028°40'0 0.0
2018-Feb-10 06:29N 44°06' E 028°40'0 0.0
2018-Feb-10 05:59N 44°06' E 028°40'0 0.0
2018-Feb-10 05:29N 44°06' E 028°40'0 0.0
2018-Feb-10 04:59N 44°06' E 028°40'0 0.0
2018-Feb-10 04:29N 44°06' E 028°40'0 0.0
2018-Feb-10 03:59N 44°06' E 028°40'0 0.0
2018-Feb-10 03:29N 44°06' E 028°40'0 0.0
2018-Feb-10 02:59N 44°06' E 028°40'0 0.0
2018-Feb-10 02:29N 44°06' E 028°40'0 0.0
2018-Feb-10 01:59N 44°06' E 028°40'0 0.0
2018-Feb-10 01:29N 44°06' E 028°40'0 0.0
2018-Feb-10 00:59N 44°06' E 028°40'0 0.0
2018-Feb-10 00:29N 44°06' E 028°40'0 0.0
2018-Feb-09 23:59N 44°06' E 028°40'0 0.0
2018-Feb-09 23:29N 44°06' E 028°40'0 0.0
2018-Feb-09 22:59N 44°06' E 028°40'0 0.0
2018-Feb-09 22:44N 44°06' E 028°40'  
Track history (hours):
 
Tides and Currents Weather Stations Pressure Air Temp Water Temp Dewpoint Dewpoint Depression Visibility Wind Speed Wind Dir Waves Ship Positions

Omar B

Last reported at 2018-Feb-19 19:17 UTC. Time now 2018-Feb-20 05:23 UTC.
Position N 46°24' E 030°55'.

Length 136 m; draft 4.9 m.

Type: Cargo ship. MMSI: 376964000.

Date/timePositionNaut miles runAvg speedWind from/ knotsBaromVisibWave heightAir tempDewpointWater temp
2018-Feb-19 19:17N 46°24' E 030°55'6 9.6
2018-Feb-19 18:40N 46°29' E 030°55'34 7.6
2018-Feb-19 14:17N 46°36' E 031°43'2 8.5
2018-Feb-19 14:00N 46°36' E 031°47'4 8.6
2018-Feb-19 13:30N 46°37' E 031°52'4 7.9
2018-Feb-19 13:00N 46°40' E 031°56'4 7.9
2018-Feb-19 12:30N 46°44' E 031°55'4 8.1
2018-Feb-19 12:00N 46°48' E 031°53'5 9.1
2018-Feb-19 11:30N 46°52' E 031°58'4 8.9
2018-Feb-19 11:00N 46°55' E 032°01'2 3.3
2018-Feb-19 10:30N 46°57' E 032°00'0 0.1
2018-Feb-19 10:00N 46°57' E 032°00'0 0.0
2018-Feb-19 09:29N 46°57' E 032°00'0 0.0
2018-Feb-19 08:59N 46°57' E 032°00'0 0.0
2018-Feb-19 08:20N 46°57' E 032°00'0 0.0
2018-Feb-19 07:59N 46°57' E 032°00'0 0.0
2018-Feb-19 07:23N 46°57' E 032°00'0 0.0
2018-Feb-19 06:59N 46°57' E 032°00'0 0.0
2018-Feb-19 06:29N 46°57' E 032°00'0 0.0
2018-Feb-19 05:59N 46°57' E 032°00'0 0.0
2018-Feb-19 05:29N 46°57' E 032°00'0 0.0
2018-Feb-19 04:59N 46°57' E 032°00'0 0.0
2018-Feb-19 04:26N 46°57' E 032°00'0 0.0
2018-Feb-19 03:59N 46°57' E 032°00'0 0.0
2018-Feb-19 03:29N 46°57' E 032°00'0 0.0
2018-Feb-19 02:59N 46°57' E 032°00'0 0.0
2018-Feb-19 02:29N 46°57' E 032°00'0 0.0
2018-Feb-19 01:59N 46°57' E 032°00'0 0.0
2018-Feb-19 01:26N 46°57' E 032°00'0 0.0
2018-Feb-19 00:59N 46°57' E 032°00'0 0.0
2018-Feb-19 00:29N 46°57' E 032°00'0 0.0
2018-Feb-18 23:59N 46°57' E 032°00'0 0.0
2018-Feb-18 23:29N 46°57' E 032°00'0 0.0
2018-Feb-18 22:59N 46°57' E 032°00'0 0.0
2018-Feb-18 22:29N 46°57' E 032°00'0 0.0
2018-Feb-18 21:59N 46°57' E 032°00'0 0.0
2018-Feb-18 21:29N 46°57' E 032°00'0 0.0
2018-Feb-18 20:59N 46°57' E 032°00'0 0.0
2018-Feb-18 20:29N 46°57' E 032°00'0 0.0
2018-Feb-18 19:59N 46°57' E 032°00'0 0.0
2018-Feb-18 19:29N 46°57' E 032°00'0 0.0
2018-Feb-18 18:59N 46°57' E 032°00'0 0.0
2018-Feb-18 18:29N 46°57' E 032°00'0 0.0
2018-Feb-18 17:59N 46°57' E 032°00'0 0.0
2018-Feb-18 17:29N 46°57' E 032°00'0 0.0
2018-Feb-18 16:59N 46°57' E 032°00'0 0.0
2018-Feb-18 16:23N 46°57' E 032°00'0 0.0
2018-Feb-18 15:59N 46°57' E 032°00'0 0.0
2018-Feb-18 15:29N 46°57' E 032°00'0 0.0
2018-Feb-18 14:59N 46°57' E 032°00'0 0.0
2018-Feb-18 14:29N 46°57' E 032°00'0 0.0
2018-Feb-18 13:59N 46°57' E 032°00'0 0.0
2018-Feb-18 13:29N 46°57' E 032°00'0 0.0
2018-Feb-18 12:59N 46°57' E 032°00'0 0.0
2018-Feb-18 12:29N 46°57' E 032°00'0 0.0
2018-Feb-18 11:59N 46°57' E 032°00'0 0.0
2018-Feb-18 11:29N 46°57' E 032°00'0 0.0
2018-Feb-18 10:59N 46°57' E 032°00'0 0.0
2018-Feb-18 10:26N 46°57' E 032°00'0 0.0
2018-Feb-18 09:59N 46°57' E 032°00'0 0.0
2018-Feb-18 09:29N 46°57' E 032°00'0 0.0
2018-Feb-18 08:59N 46°57' E 032°00'0 0.0
2018-Feb-18 08:29N 46°57' E 032°00'0 0.0
2018-Feb-18 07:59N 46°57' E 032°00'0 0.0
2018-Feb-18 07:26N 46°57' E 032°00'0 0.0
2018-Feb-18 06:59N 46°57' E 032°00'0 0.0
2018-Feb-18 06:29N 46°57' E 032°00'0 0.0
2018-Feb-18 05:59N 46°57' E 032°00'0 0.0
2018-Feb-18 05:29N 46°57' E 032°00'0 0.0
2018-Feb-18 04:59N 46°57' E 032°00'0 0.0
2018-Feb-18 04:29N 46°57' E 032°00'0 0.0
2018-Feb-18 03:59N 46°57' E 032°00'0 0.0
2018-Feb-18 03:26N 46°57' E 032°00'0 0.0
2018-Feb-18 02:59N 46°57' E 032°00'0 0.0
2018-Feb-18 02:29N 46°57' E 032°00'0 0.0
2018-Feb-18 01:59N 46°57' E 032°00'0 0.0
2018-Feb-18 01:29N 46°57' E 032°00'0 0.0
2018-Feb-18 00:59N 46°57' E 032°00'0 0.0
2018-Feb-18 00:29N 46°57' E 032°00'0 0.0
2018-Feb-17 23:59N 46°57' E 032°00'0 0.0
2018-Feb-17 23:29N 46°57' E 032°00'0 0.0
2018-Feb-17 22:59N 46°57' E 032°00'0 0.0
2018-Feb-17 22:29N 46°57' E 032°00'0 0.0
2018-Feb-17 21:59N 46°57' E 032°00'0 0.0
2018-Feb-17 21:29N 46°57' E 032°00'0 0.0
2018-Feb-17 20:59N 46°57' E 032°00'0 0.0
2018-Feb-17 20:29N 46°57' E 032°00'0 0.0
2018-Feb-17 19:59N 46°57' E 032°00'0 0.0
2018-Feb-17 19:29N 46°57' E 032°00'0 0.0
2018-Feb-17 18:59N 46°57' E 032°00'0 0.0
2018-Feb-17 18:29N 46°57' E 032°00'0 0.0
2018-Feb-17 17:59N 46°57' E 032°00'0 0.0
2018-Feb-17 17:29N 46°57' E 032°00'0 0.0
2018-Feb-17 16:59N 46°57' E 032°00'0 0.0
2018-Feb-17 16:29N 46°57' E 032°00'0 0.0
2018-Feb-17 15:59N 46°57' E 032°00'0 0.0
2018-Feb-17 15:29N 46°57' E 032°00'0 0.0
2018-Feb-17 14:59N 46°57' E 032°00'0 0.0
2018-Feb-17 14:29N 46°57' E 032°00'0 0.0
2018-Feb-17 13:59N 46°57' E 032°00'0 0.0
2018-Feb-17 13:26N 46°57' E 032°00'0 0.0
2018-Feb-17 12:59N 46°57' E 032°00'0 0.0
2018-Feb-17 12:29N 46°57' E 032°00'0 0.0
2018-Feb-17 11:59N 46°57' E 032°00'0 0.0
2018-Feb-17 11:29N 46°57' E 032°00'0 0.0
2018-Feb-17 10:59N 46°57' E 032°00'0 0.0
2018-Feb-17 10:26N 46°57' E 032°00'0 0.0
2018-Feb-17 09:59N 46°57' E 032°00'0 0.0
2018-Feb-17 09:26N 46°57' E 032°00'0 0.0
2018-Feb-17 08:59N 46°57' E 032°00'0 0.0
2018-Feb-17 08:26N 46°57' E 032°00'0 0.0
2018-Feb-17 07:56N 46°57' E 032°00'0 0.0
2018-Feb-17 07:29N 46°57' E 032°00'0 0.0
2018-Feb-17 06:59N 46°57' E 032°00'0 0.0
2018-Feb-17 06:29N 46°57' E 032°00'0 0.0
2018-Feb-17 05:59N 46°57' E 032°00'0 0.0
2018-Feb-17 05:29N 46°57' E 032°00'0 0.0
2018-Feb-17 04:59N 46°57' E 032°00'0 0.0
2018-Feb-17 04:29N 46°57' E 032°00'0 0.0
2018-Feb-17 03:59N 46°57' E 032°00'0 0.0
2018-Feb-17 03:29N 46°57' E 032°00'0 0.0
2018-Feb-17 02:59N 46°57' E 032°00'0 0.0
2018-Feb-17 02:29N 46°57' E 032°00'0 0.0
2018-Feb-17 01:59N 46°57' E 032°00'0 0.0
2018-Feb-17 01:29N 46°57' E 032°00'0 0.0
2018-Feb-17 00:59N 46°57' E 032°00'0 0.0
2018-Feb-17 00:29N 46°57' E 032°00'0 0.0
2018-Feb-16 23:59N 46°57' E 032°00'0 0.0
2018-Feb-16 23:29N 46°57' E 032°00'0 0.0
2018-Feb-16 22:59N 46°57' E 032°00'0 0.0
2018-Feb-16 22:29N 46°57' E 032°00'0 0.0
2018-Feb-16 21:59N 46°57' E 032°00'0 0.0
2018-Feb-16 21:29N 46°57' E 032°00'0 0.0
2018-Feb-16 20:59N 46°57' E 032°00'0 0.0
2018-Feb-16 20:29N 46°57' E 032°00'0 0.0
2018-Feb-16 19:59N 46°57' E 032°00'0 0.0
2018-Feb-16 19:29N 46°57' E 032°00'0 0.0
2018-Feb-16 18:59N 46°57' E 032°00'0 0.0
2018-Feb-16 18:29N 46°57' E 032°00'0 0.0
2018-Feb-16 17:56N 46°57' E 032°00'0 0.0
2018-Feb-16 17:29N 46°57' E 032°00'0 0.0
2018-Feb-16 16:59N 46°57' E 032°00'0 0.0
2018-Feb-16 16:23N 46°57' E 032°00'0 0.0
2018-Feb-16 15:59N 46°57' E 032°00'0 0.0
2018-Feb-16 15:26N 46°57' E 032°00'0 0.0
2018-Feb-16 14:59N 46°57' E 032°00'0 0.0
2018-Feb-16 14:29N 46°57' E 032°00'0 0.0
2018-Feb-16 13:56N 46°57' E 032°00'0 0.0
2018-Feb-16 13:29N 46°57' E 032°00'0 0.0
2018-Feb-16 12:56N 46°57' E 032°00'0 0.0
2018-Feb-16 12:29N 46°57' E 032°00'0 0.0
2018-Feb-16 11:59N 46°57' E 032°00'0 0.0
2018-Feb-16 11:29N 46°57' E 032°00'0 0.0
2018-Feb-16 10:59N 46°57' E 032°00'0 0.0
2018-Feb-16 10:29N 46°57' E 032°00'0 0.0
2018-Feb-16 09:59N 46°57' E 032°00'0 0.0
2018-Feb-16 09:29N 46°57' E 032°00'0 0.0
2018-Feb-16 08:59N 46°57' E 032°00'0 0.0
2018-Feb-16 08:29N 46°57' E 032°00'0 0.0
2018-Feb-16 07:59N 46°57' E 032°00'0 0.0
2018-Feb-16 07:29N 46°57' E 032°00'0 0.0
2018-Feb-16 06:59N 46°57' E 032°00'0 0.0
2018-Feb-16 06:29N 46°57' E 032°00'0 0.0
2018-Feb-16 05:59N 46°57' E 032°00'0 0.0
2018-Feb-16 05:29N 46°57' E 032°00'0 0.0
2018-Feb-16 04:47N 46°57' E 032°00'0 0.0
2018-Feb-16 04:29N 46°57' E 032°00'0 0.0
2018-Feb-16 03:59N 46°57' E 032°00'0 0.0
2018-Feb-16 03:26N 46°57' E 032°00'0 0.0
2018-Feb-16 02:59N 46°57' E 032°00'0 0.0
2018-Feb-16 02:29N 46°57' E 032°00'0 0.0
2018-Feb-16 01:59N 46°57' E 032°00'0 0.0
2018-Feb-16 01:29N 46°57' E 032°00'0 0.0
2018-Feb-16 00:59N 46°57' E 032°00'0 0.0
2018-Feb-16 00:29N 46°57' E 032°00'0 0.0
2018-Feb-15 23:59N 46°57' E 032°00'0 0.0
2018-Feb-15 23:29N 46°57' E 032°00'0 0.0
2018-Feb-15 22:59N 46°57' E 032°00'0 0.0
2018-Feb-15 22:29N 46°57' E 032°00'0 0.0
2018-Feb-15 21:59N 46°57' E 032°00'0 0.0
2018-Feb-15 21:29N 46°57' E 032°00'0 0.0
2018-Feb-15 20:59N 46°57' E 032°00'0 0.0
2018-Feb-15 20:29N 46°57' E 032°00'0 0.0
2018-Feb-15 19:59N 46°57' E 032°00'0 0.0
2018-Feb-15 19:26N 46°57' E 032°00'0 0.0
2018-Feb-15 18:56N 46°57' E 032°00'0 0.0
2018-Feb-15 18:29N 46°57' E 032°00'0 0.0
2018-Feb-15 17:59N 46°57' E 032°00'0 0.0
2018-Feb-15 17:29N 46°57' E 032°00'0 0.0
2018-Feb-15 16:59N 46°57' E 032°00'0 0.0
2018-Feb-15 16:29N 46°57' E 032°00'0 0.0
2018-Feb-15 15:59N 46°57' E 032°00'0 0.0
2018-Feb-15 15:29N 46°57' E 032°00'0 0.0
2018-Feb-15 14:59N 46°57' E 032°00'0 0.0
2018-Feb-15 14:29N 46°57' E 032°00'0 0.0
2018-Feb-15 13:59N 46°57' E 032°00'0 0.0
2018-Feb-15 13:26N 46°57' E 032°00'0 0.0
2018-Feb-15 12:59N 46°57' E 032°00'0 0.0
2018-Feb-15 12:29N 46°57' E 032°00'0 0.0
2018-Feb-15 11:56N 46°57' E 032°00'0 0.0
2018-Feb-15 11:29N 46°57' E 032°00'0 0.5
2018-Feb-15 11:01N 46°57' E 032°00'2 4.7
2018-Feb-15 10:31N 46°54' E 032°01'4 8.7
2018-Feb-15 10:00N 46°51' E 031°57'4 7.9
2018-Feb-15 09:31N 46°48' E 031°53'510.0
2018-Feb-15 09:00N 46°43' E 031°56'5 9.9
2018-Feb-15 08:30N 46°38' E 031°55'39 8.3
2018-Feb-15 03:47N 46°32' E 030°58'3 8.6
2018-Feb-15 03:25N 46°29' E 030°57'  
2018-Feb-12 22:51N 44°21' E 029°20'410.2
2018-Feb-12 22:30N 44°19' E 029°16'510.4
2018-Feb-12 22:00N 44°16' E 029°10'610.7
2018-Feb-12 21:29N 44°13' E 029°03'510.9
2018-Feb-12 21:00N 44°10' E 028°57'510.9
2018-Feb-12 20:30N 44°07' E 028°51'511.0
2018-Feb-12 20:00N 44°05' E 028°44'3 6.3
2018-Feb-12 19:30N 44°06' E 028°40'0 0.7
2018-Feb-12 19:00N 44°06' E 028°40'0 0.0
2018-Feb-12 18:30N 44°06' E 028°40'0 0.0
2018-Feb-12 18:00N 44°06' E 028°40'0 0.0
2018-Feb-12 17:30N 44°06' E 028°40'0 0.0
2018-Feb-12 17:00N 44°06' E 028°40'0 0.0
2018-Feb-12 16:30N 44°06' E 028°40'0 0.0
2018-Feb-12 16:00N 44°06' E 028°40'0 0.0
2018-Feb-12 15:30N 44°06' E 028°40'0 0.0
2018-Feb-12 15:00N 44°06' E 028°40'0 0.0
2018-Feb-12 14:30N 44°06' E 028°40'0 0.0
2018-Feb-12 14:00N 44°06' E 028°40'0 0.0
2018-Feb-12 13:29N 44°06' E 028°40'0 0.0
2018-Feb-12 13:00N 44°06' E 028°40'0 0.0
2018-Feb-12 12:30N 44°06' E 028°40'0 0.0
2018-Feb-12 11:59N 44°06' E 028°40'0 0.0
2018-Feb-12 11:30N 44°06' E 028°40'0 0.0
2018-Feb-12 11:00N 44°06' E 028°40'0 0.0
2018-Feb-12 10:30N 44°06' E 028°40'0 0.0
2018-Feb-12 10:00N 44°06' E 028°40'0 0.0
2018-Feb-12 09:29N 44°06' E 028°40'0 0.0
2018-Feb-12 08:59N 44°06' E 028°40'0 0.0
2018-Feb-12 08:26N 44°06' E 028°40'0 0.0
2018-Feb-12 07:59N 44°06' E 028°40'0 0.0
2018-Feb-12 07:29N 44°06' E 028°40'0 0.0
2018-Feb-12 06:59N 44°06' E 028°40'0 0.0
2018-Feb-12 06:26N 44°06' E 028°40'0 0.0
2018-Feb-12 05:59N 44°06' E 028°40'0 0.0
2018-Feb-12 05:29N 44°06' E 028°40'0 0.0
2018-Feb-12 04:59N 44°06' E 028°40'0 0.0
2018-Feb-12 04:29N 44°06' E 028°40'0 0.0
2018-Feb-12 03:59N 44°06' E 028°40'0 0.0
2018-Feb-12 03:29N 44°06' E 028°40'0 0.0
2018-Feb-12 02:59N 44°06' E 028°40'0 0.0
2018-Feb-12 02:29N 44°06' E 028°40'0 0.0
2018-Feb-12 01:59N 44°06' E 028°40'0 0.0
2018-Feb-12 01:29N 44°06' E 028°40'0 0.0
2018-Feb-12 00:59N 44°06' E 028°40'0 0.0
2018-Feb-12 00:29N 44°06' E 028°40'0 0.0
2018-Feb-11 23:56N 44°06' E 028°40'0 0.0
2018-Feb-11 23:29N 44°06' E 028°40'0 0.0
2018-Feb-11 22:59N 44°06' E 028°40'0 0.0
2018-Feb-11 22:29N 44°06' E 028°40'0 0.0
2018-Feb-11 21:59N 44°06' E 028°40'0 0.0
2018-Feb-11 21:29N 44°06' E 028°40'0 0.0
2018-Feb-11 20:59N 44°06' E 028°40'0 0.0
2018-Feb-11 20:29N 44°06' E 028°40'0 0.0
2018-Feb-11 19:59N 44°06' E 028°40'0 0.0
2018-Feb-11 19:29N 44°06' E 028°40'0 0.0
2018-Feb-11 18:59N 44°06' E 028°40'0 0.0
2018-Feb-11 18:29N 44°06' E 028°40'0 0.0
2018-Feb-11 17:59N 44°06' E 028°40'0 0.0
2018-Feb-11 17:29N 44°06' E 028°40'0 0.0
2018-Feb-11 16:56N 44°06' E 028°40'0 0.0
2018-Feb-11 16:29N 44°06' E 028°40'0 0.0
2018-Feb-11 15:59N 44°06' E 028°40'0 0.0
2018-Feb-11 15:29N 44°06' E 028°40'0 0.0
2018-Feb-11 14:59N 44°06' E 028°40'0 0.0
2018-Feb-11 14:29N 44°06' E 028°40'0 0.0
2018-Feb-11 13:59N 44°06' E 028°40'0 0.0
2018-Feb-11 13:29N 44°06' E 028°40'0 0.0
2018-Feb-11 12:59N 44°06' E 028°40'0 0.0
2018-Feb-11 12:29N 44°06' E 028°40'0 0.0
2018-Feb-11 11:59N 44°06' E 028°40'0 0.0
2018-Feb-11 11:29N 44°06' E 028°40'0 0.0
2018-Feb-11 10:59N 44°06' E 028°40'0 0.0
2018-Feb-11 10:29N 44°06' E 028°40'0 0.0
2018-Feb-11 09:59N 44°06' E 028°40'0 0.0
2018-Feb-11 09:29N 44°06' E 028°40'0 0.0
2018-Feb-11 08:59N 44°06' E 028°40'0 0.0
2018-Feb-11 08:29N 44°06' E 028°40'0 0.0
2018-Feb-11 07:59N 44°06' E 028°40'0 0.0
2018-Feb-11 07:29N 44°06' E 028°40'0 0.0
2018-Feb-11 06:59N 44°06' E 028°40'0 0.0
2018-Feb-11 06:29N 44°06' E 028°40'0 0.0
2018-Feb-11 05:59N 44°06' E 028°40'0 0.0
2018-Feb-11 05:29N 44°06' E 028°40'0 0.0
2018-Feb-11 04:59N 44°06' E 028°40'0 0.0
2018-Feb-11 04:29N 44°06' E 028°40'0 0.0
2018-Feb-11 03:59N 44°06' E 028°40'0 0.0
2018-Feb-11 03:29N 44°06' E 028°40'0 0.0
2018-Feb-11 02:59N 44°06' E 028°40'0 0.0
2018-Feb-11 02:29N 44°06' E 028°40'0 0.0
2018-Feb-11 01:59N 44°06' E 028°40'0 0.0
2018-Feb-11 01:29N 44°06' E 028°40'0 0.0
2018-Feb-11 00:59N 44°06' E 028°40'0 0.0
2018-Feb-11 00:29N 44°06' E 028°40'0 0.0
2018-Feb-10 23:59N 44°06' E 028°40'0 0.0
2018-Feb-10 23:29N 44°06' E 028°40'0 0.0
2018-Feb-10 22:59N 44°06' E 028°40'0 0.0
2018-Feb-10 22:29N 44°06' E 028°40'0 0.0
2018-Feb-10 21:59N 44°06' E 028°40'0 0.0
2018-Feb-10 21:29N 44°06' E 028°40'0 0.0
2018-Feb-10 20:59N 44°06' E 028°40'0 0.0
2018-Feb-10 20:29N 44°06' E 028°40'0 0.0
2018-Feb-10 19:59N 44°06' E 028°40'0 0.0
2018-Feb-10 19:29N 44°06' E 028°40'0 0.0
2018-Feb-10 18:59N 44°06' E 028°40'0 0.0
2018-Feb-10 18:29N 44°06' E 028°40'0 0.0
2018-Feb-10 17:59N 44°06' E 028°40'0 0.0
2018-Feb-10 17:29N 44°06' E 028°40'0 0.0
2018-Feb-10 16:59N 44°06' E 028°40'0 0.0
2018-Feb-10 16:29N 44°06' E 028°40'0 0.0
2018-Feb-10 15:59N 44°06' E 028°40'0 0.0
2018-Feb-10 15:29N 44°06' E 028°40'0 0.0
2018-Feb-10 14:59N 44°06' E 028°40'0 0.0
2018-Feb-10 14:29N 44°06' E 028°40'0 0.0
2018-Feb-10 13:59N 44°06' E 028°40'0 0.0
2018-Feb-10 13:29N 44°06' E 028°40'0 0.0
2018-Feb-10 12:59N 44°06' E 028°40'0 0.0
2018-Feb-10 12:29N 44°06' E 028°40'0 0.0
2018-Feb-10 11:59N 44°06' E 028°40'0 0.0
2018-Feb-10 11:29N 44°06' E 028°40'0 0.0
2018-Feb-10 10:59N 44°06' E 028°40'0 0.0
2018-Feb-10 10:29N 44°06' E 028°40'0 0.0
2018-Feb-10 09:59N 44°06' E 028°40'0 0.0
2018-Feb-10 09:29N 44°06' E 028°40'0 0.0
2018-Feb-10 08:59N 44°06' E 028°40'0 0.0
2018-Feb-10 08:29N 44°06' E 028°40'0 0.0
2018-Feb-10 07:59N 44°06' E 028°40'0 0.0
2018-Feb-10 07:29N 44°06' E 028°40'0 0.0
2018-Feb-10 06:59N 44°06' E 028°40'0 0.0
2018-Feb-10 06:29N 44°06' E 028°40'0 0.0
2018-Feb-10 05:59N 44°06' E 028°40'0 0.0
2018-Feb-10 05:29N 44°06' E 028°40'0 0.0
2018-Feb-10 04:59N 44°06' E 028°40'0 0.0
2018-Feb-10 04:29N 44°06' E 028°40'0 0.0
2018-Feb-10 03:59N 44°06' E 028°40'0 0.0
2018-Feb-10 03:29N 44°06' E 028°40'0 0.0
2018-Feb-10 02:59N 44°06' E 028°40'0 0.0
2018-Feb-10 02:29N 44°06' E 028°40'0 0.0
2018-Feb-10 01:59N 44°06' E 028°40'0 0.0
2018-Feb-10 01:29N 44°06' E 028°40'0 0.0
2018-Feb-10 00:59N 44°06' E 028°40'0 0.0
2018-Feb-10 00:29N 44°06' E 028°40'0 0.0
2018-Feb-09 23:59N 44°06' E 028°40'0 0.0
2018-Feb-09 23:29N 44°06' E 028°40'0 0.0
2018-Feb-09 22:59N 44°06' E 028°40'0 0.0
2018-Feb-09 22:44N 44°06' E 028°40'  

Dump ship's entire track history